Time;durP1;ratioP1;P1;durP2;ratioP2;P2;SDS_P1;SDS_P2;PMS_P1;PMS_P2;Temp;Humidity;BMP_temperature;BMP_pressure;BME280_temperature;BME280_humidity;BME280_pressure;Samples;Min_cycle;Max_cycle;Signal;HPM_P1;HPM_P2
2022/05/30 00:02:25;;;;;;;;;;;;;;;24.28;29.33;100314.41;5095234;28;19920;-70
2022/05/30 00:04:50;;;;;;;;;;;;;;;24.29;29.40;100307.06;5075718;28;19916;-70
2022/05/30 00:07:15;;;;;;;;;;;;;;;24.28;29.38;100313.63;5074807;28;20366;-71
2022/05/30 00:09:40;;;;;;;;;;;;;;;24.28;29.27;100313.63;5074386;28;19927;-69
2022/05/30 00:12:06;;;;;;;;;;;;;;;24.27;29.29;100317.47;5074579;28;20007;-68
2022/05/30 00:14:31;;;;;;;;;;;;;;;24.27;29.56;100309.28;5074640;28;19940;-69
2022/05/30 00:16:56;;;;;;;;;;;;;;;24.27;29.50;100318.25;5074683;28;19951;-69
2022/05/30 00:19:21;;;;;;;;;;;;;;;24.27;29.60;100322.91;5074309;28;20355;-70
2022/05/30 00:21:47;;;;;;;;;;;;;;;24.28;29.46;100330.00;5075249;28;19923;-70
2022/05/30 00:24:12;;;;;;;;;;;;;;;24.28;29.31;100330.81;5078966;28;20363;-70
2022/05/30 00:26:37;;;;;;;;;;;;;;;24.28;29.45;100333.53;5094713;28;20012;-69
2022/05/30 00:29:06;;;;;;;;;;;;;;;24.28;29.29;100333.53;5094353;28;19916;-69
2022/05/30 00:31:31;;;;;;;;;;;;;;;24.27;29.41;100333.84;5094587;28;19920;-71
2022/05/30 00:33:56;;;;;;;;;;;;;;;24.27;29.54;100339.31;5094404;28;19961;-69
2022/05/30 00:36:21;;;;;;;;;;;;;;;24.27;29.36;100334.66;5094330;28;19962;-69
2022/05/30 00:38:47;;;;;;;;;;;;;;;24.26;29.50;100334.94;5094477;28;19923;-69
2022/05/30 00:41:12;;;;;;;;;;;;;;;24.26;29.40;100332.19;5094571;28;19931;-71
2022/05/30 00:43:38;;;;;;;;;;;;;;;24.27;29.52;100333.84;5094118;28;19916;-70
2022/05/30 00:46:06;;;;;;;;;;;;;;;24.27;29.74;100342.84;5094182;28;19923;-69
2022/05/30 00:48:33;;;;;;;;;;;;;;;24.27;29.63;100339.31;5094472;28;19931;-69
2022/05/30 00:50:59;;;;;;;;;;;;;;;24.27;29.54;100344.78;5094467;28;19916;-69
2022/05/30 00:53:25;;;;;;;;;;;;;;;24.26;29.63;100343.94;5094075;28;19959;-69
2022/05/30 00:55:50;;;;;;;;;;;;;;;24.26;29.40;100351.31;5094363;28;19955;-70
2022/05/30 00:58:15;;;;;;;;;;;;;;;24.27;29.50;100350.22;5076685;28;20350;-70
2022/05/30 01:00:40;;;;;;;;;;;;;;;24.26;29.57;100346.66;5075981;28;20008;-69
2022/05/30 01:08:33;;;;;;;;;;;;;;;24.25;29.53;100347.78;5078832;28;20274;-71
2022/05/30 01:10:59;;;;;;;;;;;;;;;24.26;29.58;100343.13;5093714;28;19924;-70
2022/05/30 01:13:27;;;;;;;;;;;;;;;24.25;29.53;100352.41;5094112;28;19956;-70
2022/05/30 01:15:52;;;;;;;;;;;;;;;24.25;29.76;100346.94;5093858;28;19916;-70
2022/05/30 01:18:19;;;;;;;;;;;;;;;24.25;29.54;100350.50;5093536;28;19969;-70
2022/05/30 01:20:57;;;;;;;;;;;;;;;24.26;29.54;100348.59;5093682;28;20278;-70
2022/05/30 01:23:25;;;;;;;;;;;;;;;24.25;29.69;100346.94;5093943;28;19920;-70
2022/05/30 01:25:50;;;;;;;;;;;;;;;24.25;29.69;100352.41;5093560;28;19920;-70
2022/05/30 01:28:21;;;;;;;;;;;;;;;24.26;29.64;100354.03;5093938;28;19962;-70
2022/05/30 01:30:47;;;;;;;;;;;;;;;24.25;29.63;100349.66;5093635;28;19927;-70
2022/05/30 01:33:13;;;;;;;;;;;;;;;24.25;29.64;100352.41;5094647;28;20293;-70
2022/05/30 01:35:38;;;;;;;;;;;;;;;24.26;29.35;100351.31;5093894;28;19924;-70
2022/05/30 01:38:03;;;;;;;;;;;;;;;24.26;29.68;100354.03;5093823;28;20289;-70
2022/05/30 01:40:29;;;;;;;;;;;;;;;24.27;29.35;100361.16;5093861;28;19920;-70
2022/05/30 01:42:54;;;;;;;;;;;;;;;24.26;29.39;100364.97;5093935;28;19916;-70
2022/05/30 01:45:19;;;;;;;;;;;;;;;24.25;29.56;100363.31;5093776;28;19977;-70
2022/05/30 01:47:45;;;;;;;;;;;;;;;24.26;29.16;100362.22;5094158;28;20277;-70
2022/05/30 01:50:10;;;;;;;;;;;;;;;24.26;29.39;100362.22;5093622;28;20285;-70
2022/05/30 01:52:35;;;;;;;;;;;;;;;24.24;29.28;100367.16;5093665;28;19916;-70
2022/05/30 01:55:01;;;;;;;;;;;;;;;24.25;29.29;100366.88;5093704;28;19920;-70
2022/05/30 01:57:26;;;;;;;;;;;;;;;24.26;29.17;100365.78;5093323;28;20252;-70
2022/05/30 01:59:51;;;;;;;;;;;;;;;24.26;29.29;100370.44;5093318;28;19923;-70
2022/05/30 02:02:16;;;;;;;;;;;;;;;24.25;29.14;100380.53;5093530;28;19916;-70
2022/05/30 02:04:41;;;;;;;;;;;;;;;24.25;29.16;100376.97;5093366;28;20354;-71
2022/05/30 02:07:07;;;;;;;;;;;;;;;24.24;28.92;100389.00;5093041;28;20003;-69
2022/05/30 02:09:32;;;;;;;;;;;;;;;24.24;29.26;100384.34;5093422;28;19927;-69
2022/05/30 02:11:57;;;;;;;;;;;;;;;24.24;29.02;100389.00;5075421;28;19916;-69
2022/05/30 02:14:23;;;;;;;;;;;;;;;24.24;28.94;100395.28;5093143;28;19916;-71
2022/05/30 02:17:00;;;;;;;;;;;;;;;24.24;28.97;100397.19;5093520;28;19966;-70
2022/05/30 02:19:26;;;;;;;;;;;;;;;24.24;29.00;100394.47;5093277;28;19962;-69
2022/05/30 02:21:51;;;;;;;;;;;;;;;24.23;28.90;100404.56;5093444;28;19916;-69
2022/05/30 02:24:16;;;;;;;;;;;;;;;24.21;29.18;100403.22;5096931;28;19920;-69
2022/05/30 02:26:42;;;;;;;;;;;;;;;24.23;29.03;100403.75;5096672;28;19916;-69
2022/05/30 02:29:07;;;;;;;;;;;;;;;24.23;28.84;100409.22;5097013;28;19916;-70
2022/05/30 02:31:32;;;;;;;;;;;;;;;24.22;29.22;100411.13;5096650;28;20011;-71
2022/05/30 02:36:44;;;;;;;;;;;;;;;24.23;29.11;100414.66;5097188;28;19982;-70
2022/05/30 02:39:10;;;;;;;;;;;;;;;24.23;28.82;100420.13;5097159;28;20279;-70
2022/05/30 02:41:36;;;;;;;;;;;;;;;24.22;29.10;100415.78;5096893;28;19916;-70
2022/05/30 02:44:01;;;;;;;;;;;;;;;24.22;29.08;100421.25;5096819;28;20405;-70
2022/05/30 02:46:26;;;;;;;;;;;;;;;24.23;29.03;100431.06;5096360;28;19922;-70
2022/05/30 02:48:52;;;;;;;;;;;;;;;24.22;29.07;100424.78;5096359;28;19970;-70
2022/05/30 02:51:17;;;;;;;;;;;;;;;24.23;29.02;100417.41;5096853;28;19916;-70
2022/05/30 02:53:42;;;;;;;;;;;;;;;24.23;28.82;100425.59;5096613;28;20385;-70
2022/05/30 02:56:08;;;;;;;;;;;;;;;24.22;28.80;100432.97;5096202;28;19916;-69
2022/05/30 02:58:34;;;;;;;;;;;;;;;24.23;28.73;100429.13;5078460;28;19916;-70
2022/05/30 03:00:59;;;;;;;;;;;;;;;24.23;28.75;100431.88;5096168;28;20404;-70
2022/05/30 03:03:24;;;;;;;;;;;;;;;24.24;28.83;100427.25;5096008;28;19917;-69
2022/05/30 03:05:49;;;;;;;;;;;;;;;24.26;28.91;100425.84;5096350;28;20003;-69
2022/05/30 03:08:14;;;;;;;;;;;;;;;24.28;28.74;100433.78;5096511;28;20352;-69
2022/05/30 03:10:40;;;;;;;;;;;;;;;24.31;28.64;100433.22;5095874;28;20002;-69
2022/05/30 03:13:05;;;;;;;;;;;;;;;24.35;28.69;100443.31;5096233;28;19916;-70
2022/05/30 03:15:30;;;;;;;;;;;;;;;24.42;28.53;100442.19;5095835;28;20334;-70
2022/05/30 03:17:56;;;;;;;;;;;;;;;24.48;28.60;100441.88;5096024;28;19916;-69
2022/05/30 03:20:21;;;;;;;;;;;;;;;24.51;28.57;100444.06;5095640;28;19944;-69
2022/05/30 03:22:46;;;;;;;;;;;;;;;24.56;28.52;100437.81;5095987;28;19916;-69
2022/05/30 03:25:13;;;;;;;;;;;;;;;24.55;28.55;100438.91;5077376;28;20332;-69
2022/05/30 03:27:38;;;;;;;;;;;;;;;24.59;28.47;100445.41;5095897;28;19916;-70
2022/05/30 03:30:04;;;;;;;;;;;;;;;24.66;28.48;100445.13;5095899;28;19970;-70
2022/05/30 03:32:29;;;;;;;;;;;;;;;24.68;28.56;100443.75;5100620;28;19976;-70
2022/05/30 03:34:54;;;;;;;;;;;;;;;24.69;28.51;100441.84;5103634;28;19970;-70
2022/05/30 03:37:19;;;;;;;;;;;;;;;24.72;28.55;100444.00;5096196;28;19959;-70
2022/05/30 03:39:45;;;;;;;;;;;;;;;24.74;28.25;100448.09;5096016;28;20366;-70
2022/05/30 03:42:13;;;;;;;;;;;;;;;24.78;28.35;100444.78;5095472;28;19992;-70
2022/05/30 03:44:39;;;;;;;;;;;;;;;24.80;28.32;100451.63;5095723;28;19920;-70
2022/05/30 03:47:04;;;;;;;;;;;;;;;24.82;28.44;100449.44;5095467;28;19938;-70
2022/05/30 03:49:29;;;;;;;;;;;;;;;24.84;28.48;100452.69;5077025;28;20065;-70
2022/05/30 03:51:55;;;;;;;;;;;;;;;24.86;28.29;100458.69;5095552;28;19923;-70
2022/05/30 03:54:20;;;;;;;;;;;;;;;24.91;28.30;100461.38;5095541;28;20355;-70
2022/05/30 03:56:45;;;;;;;;;;;;;;;24.91;28.17;100458.66;5095561;28;19916;-70
2022/05/30 03:59:10;;;;;;;;;;;;;;;24.93;28.24;100450.97;5095308;28;19916;-70
2022/05/30 04:01:36;;;;;;;;;;;;;;;24.93;28.28;100455.66;5095277;28;19916;-70
2022/05/30 04:04:01;;;;;;;;;;;;;;;24.98;28.02;100468.47;5094819;28;19923;-70
2022/05/30 04:06:26;;;;;;;;;;;;;;;25.00;28.07;100469.00;5094918;28;19917;-70
2022/05/30 04:08:51;;;;;;;;;;;;;;;25.03;27.87;100460.25;5095192;28;19970;-70
2022/05/30 04:11:17;;;;;;;;;;;;;;;25.06;28.05;100471.44;5076733;28;20370;-70
2022/05/30 04:13:42;;;;;;;;;;;;;;;25.10;27.79;100477.16;5094629;28;19938;-70
2022/05/30 04:16:08;;;;;;;;;;;;;;;25.12;27.70;100481.22;5095357;28;20008;-71
2022/05/30 04:18:33;;;;;;;;;;;;;;;25.12;27.74;100483.97;5094879;28;19916;-70
2022/05/30 04:20:59;;;;;;;;;;;;;;;25.10;27.64;100482.63;5094845;28;20370;-70
2022/05/30 04:23:24;;;;;;;;;;;;;;;25.10;27.95;100483.44;5094395;28;20002;-70
2022/05/30 04:25:49;;;;;;;;;;;;;;;25.15;27.89;100479.84;5094296;28;19927;-70
2022/05/30 04:28:16;;;;;;;;;;;;;;;25.16;27.89;100486.13;5094973;28;19915;-70
2022/05/30 04:30:41;;;;;;;;;;;;;;;25.18;27.69;100490.22;5094062;28;19916;-70
2022/05/30 04:33:08;;;;;;;;;;;;;;;25.20;27.62;100498.97;5093321;28;20324;-70
2022/05/30 04:35:33;;;;;;;;;;;;;;;25.20;27.65;100492.66;5094473;28;19920;-70
2022/05/30 04:37:58;;;;;;;;;;;;;;;25.22;27.57;100496.75;5075939;28;20410;-71
2022/05/30 04:40:24;;;;;;;;;;;;;;;25.20;27.74;100498.97;5094372;28;19991;-70
2022/05/30 04:42:49;;;;;;;;;;;;;;;25.24;27.86;100502.75;5094084;28;20382;-70
2022/05/30 04:45:14;;;;;;;;;;;;;;;25.22;27.91;100502.22;5093813;28;19916;-70
2022/05/30 04:47:40;;;;;;;;;;;;;;;25.26;27.85;100503.31;5093996;28;20358;-70
2022/05/30 04:50:06;;;;;;;;;;;;;;;25.29;27.75;100502.75;5094091;28;19955;-70
2022/05/30 04:52:31;;;;;;;;;;;;;;;25.30;28.08;100504.41;5093849;28;20378;-70
2022/05/30 04:54:57;;;;;;;;;;;;;;;25.33;27.75;100507.66;5093875;28;19916;-70
2022/05/30 04:57:22;;;;;;;;;;;;;;;25.33;27.98;100504.94;5094169;28;19917;-70
2022/05/30 04:59:47;;;;;;;;;;;;;;;25.34;28.15;100504.66;5076298;28;19916;-70
2022/05/30 05:02:13;;;;;;;;;;;;;;;25.35;27.97;100516.41;5093763;28;20006;-70
2022/05/30 05:04:38;;;;;;;;;;;;;;;25.40;28.18;100513.63;5075509;28;19916;-71
2022/05/30 05:07:04;;;;;;;;;;;;;;;25.38;28.19;100511.19;5093183;28;20388;-70
2022/05/30 05:09:34;;;;;;;;;;;;;;;25.38;28.32;100521.31;5093637;28;19928;-71
2022/05/30 05:11:59;;;;;;;;;;;;;;;25.44;28.32;100525.63;5093408;28;19920;-70
2022/05/30 05:14:24;;;;;;;;;;;;;;;25.45;28.19;100522.63;5093621;28;19999;-70
2022/05/30 05:16:50;;;;;;;;;;;;;;;25.46;28.08;100520.72;5093756;28;19944;-70
2022/05/30 05:19:15;;;;;;;;;;;;;;;25.48;28.14;100527.53;5094344;28;20007;-69
2022/05/30 05:21:42;;;;;;;;;;;;;;;25.50;28.24;100521.78;5093957;28;20007;-70
2022/05/30 05:24:07;;;;;;;;;;;;;;;25.51;28.36;100533.53;5095517;28;19927;-69
2022/05/30 05:26:32;;;;;;;;;;;;;;;25.48;28.51;100527.53;5095072;28;19923;-70
2022/05/30 05:28:58;;;;;;;;;;;;;;;25.49;28.29;100522.88;5094126;28;19918;-70
2022/05/30 05:31:24;;;;;;;;;;;;;;;25.55;28.28;100529.13;5095123;28;19966;-70
2022/05/30 05:33:50;;;;;;;;;;;;;;;25.59;28.37;100535.66;5088236;28;19920;-76
2022/05/30 05:36:19;;;;;;;;;;;;;;;25.60;28.38;100535.38;5107142;28;19955;-74
2022/05/30 05:38:44;;;;;;;;;;;;;;;25.60;28.35;100529.09;5111998;28;19916;-74
2022/05/30 05:41:09;;;;;;;;;;;;;;;25.65;28.50;100532.59;5111182;28;19944;-75
2022/05/30 05:43:36;;;;;;;;;;;;;;;25.62;28.64;100533.16;5114166;28;19927;-74
2022/05/30 05:46:01;;;;;;;;;;;;;;;25.62;28.67;100533.16;5107805;28;19916;-75
2022/05/30 05:48:26;;;;;;;;;;;;;;;25.71;28.57;100535.31;5104111;28;19942;-75
2022/05/30 05:50:52;;;;;;;;;;;;;;;25.65;28.39;100538.09;5095012;28;20380;-75
2022/05/30 05:53:17;;;;;;;;;;;;;;;25.70;28.49;100539.13;5094390;28;19916;-75
2022/05/30 05:55:42;;;;;;;;;;;;;;;25.71;28.51;100543.53;5075999;28;20350;-76
2022/05/30 05:58:08;;;;;;;;;;;;;;;25.76;28.24;100544.28;5096973;28;19923;-75
2022/05/30 06:00:33;;;;;;;;;;;;;;;25.80;28.42;100541.78;5097154;28;20415;-75
2022/05/30 06:02:58;;;;;;;;;;;;;;;25.73;28.43;100538.56;5097479;28;19920;-75
2022/05/30 06:05:24;;;;;;;;;;;;;;;25.78;28.19;100530.31;5096842;28;20278;-76
2022/05/30 06:07:49;;;;;;;;;;;;;;;25.82;28.36;100536.88;5097566;28;19970;-76
2022/05/30 06:10:14;;;;;;;;;;;;;;;25.82;28.11;100534.94;5096980;28;20378;-76
2022/05/30 06:12:42;;;;;;;;;;;;;;;25.80;28.36;100537.16;5096804;28;19938;-75
2022/05/30 06:15:08;;;;;;;;;;;;;;;25.79;28.28;100537.44;5097335;28;20219;-75
2022/05/30 06:17:33;;;;;;;;;;;;;;;25.84;28.17;100540.94;5096726;28;19916;-74
2022/05/30 06:19:59;;;;;;;;;;;;;;;25.79;28.31;100543.72;5096842;28;20403;-73
2022/05/30 06:22:24;;;;;;;;;;;;;;;25.86;28.11;100548.88;5096433;28;19943;-74
2022/05/30 06:24:49;;;;;;;;;;;;;;;25.80;28.20;100550.00;5096625;28;19920;-73
2022/05/30 06:27:17;;;;;;;;;;;;;;;25.81;28.34;100549.72;5079066;28;19923;-73
2022/05/30 06:29:42;;;;;;;;;;;;;;;25.81;28.19;100554.38;5097156;28;19925;-73
2022/05/30 06:32:08;;;;;;;;;;;;;;;25.85;28.38;100552.69;5096764;28;19916;-71
2022/05/30 06:34:33;;;;;;;;;;;;;;;25.85;28.36;100553.53;5096752;28;19916;-74
2022/05/30 06:36:59;;;;;;;;;;;;;;;25.82;28.34;100553.31;5096909;28;19931;-75
2022/05/30 06:39:24;;;;;;;;;;;;;;;25.80;28.47;100550.84;5096418;28;19916;-74
2022/05/30 06:41:49;;;;;;;;;;;;;;;25.82;28.32;100556.03;5096246;28;19967;-74
2022/05/30 06:44:14;;;;;;;;;;;;;;;25.84;28.39;100557.38;5096174;28;19916;-74
2022/05/30 06:46:40;;;;;;;;;;;;;;;25.84;28.05;100567.50;5078259;28;19971;-75
2022/05/30 06:49:05;;;;;;;;;;;;;;;25.85;28.24;100563.66;5096532;28;20392;-72
2022/05/30 06:51:31;;;;;;;;;;;;;;;25.82;28.27;100572.47;5096758;28;19916;-73
2022/05/30 06:53:56;;;;;;;;;;;;;;;25.87;27.96;100577.88;5096212;28;19916;-73
2022/05/30 06:56:22;;;;;;;;;;;;;;;25.91;27.82;100575.41;5095769;28;19920;-71
2022/05/30 06:58:50;;;;;;;;;;;;;;;25.90;28.02;100576.50;5097021;28;20061;-71
2022/05/30 07:01:15;;;;;;;;;;;;;;;25.89;27.89;100574.84;5095786;28;19947;-71
2022/05/30 07:03:41;;;;;;;;;;;;;;;25.86;27.89;100584.47;5095658;28;19970;-70
2022/05/30 07:06:07;;;;;;;;;;;;;;;25.93;27.92;100582.22;5095805;28;19916;-69
2022/05/30 07:08:32;;;;;;;;;;;;;;;25.94;27.82;100581.16;5096274;28;19928;-69
2022/05/30 07:10:57;;;;;;;;;;;;;;;25.93;27.97;100586.88;5096046;28;20262;-69
2022/05/30 07:13:23;;;;;;;;;;;;;;;26.05;27.59;100590.91;5095742;28;19970;-68
2022/05/30 07:15:48;;;;;;;;;;;;;;;25.87;28.07;100583.34;5095796;28;20208;-69
2022/05/30 07:18:14;;;;;;;;;;;;;;;25.92;28.00;100588.78;5078003;28;19916;-70
2022/05/30 07:20:39;;;;;;;;;;;;;;;26.00;27.83;100582.72;5095762;28;20011;-70
2022/05/30 07:23:05;;;;;;;;;;;;;;;25.99;27.90;100588.50;5095549;28;20280;-73
2022/05/30 07:25:30;;;;;;;;;;;;;;;26.07;27.75;100587.06;5095173;28;19931;-73
2022/05/30 07:27:56;;;;;;;;;;;;;;;26.12;27.66;100598.78;5077137;28;20008;-72
2022/05/30 07:30:21;;;;;;;;;;;;;;;26.04;28.09;100593.94;5094927;28;20368;-74
2022/05/30 07:32:47;;;;;;;;;;;;;;;26.03;27.88;100595.03;5095091;28;19951;-74
2022/05/30 07:35:12;;;;;;;;;;;;;;;26.04;27.96;100600.25;5095037;28;19916;-75
2022/05/30 07:37:37;;;;;;;;;;;;;;;26.08;27.96;100599.66;5096794;28;19916;-75
2022/05/30 07:40:04;;;;;;;;;;;;;;;26.11;27.90;100594.41;5099519;28;19916;-75
2022/05/30 07:42:29;;;;;;;;;;;;;;;26.15;27.79;100600.16;5095348;28;19920;-75
2022/05/30 07:44:54;;;;;;;;;;;;;;;26.07;27.94;100598.03;5095295;28;19922;-74
2022/05/30 07:47:20;;;;;;;;;;;;;;;26.11;27.60;100599.88;5095557;28;19923;-75
2022/05/30 07:49:46;;;;;;;;;;;;;;;26.11;27.70;100599.06;5095121;28;19970;-75
2022/05/30 07:52:11;;;;;;;;;;;;;;;26.08;27.82;100596.91;5077380;28;19915;-75
2022/05/30 07:54:36;;;;;;;;;;;;;;;26.15;28.00;100584.53;5094536;28;19954;-74
2022/05/30 07:57:05;;;;;;;;;;;;;;;26.16;27.75;100594.38;5076313;28;20002;-75
2022/05/30 07:59:30;;;;;;;;;;;;;;;26.17;27.72;100598.75;5099310;28;19916;-76
2022/05/30 08:01:56;;;;;;;;;;;;;;;26.18;27.68;100589.44;5099579;28;20432;-76
2022/05/30 08:04:22;;;;;;;;;;;;;;;26.11;28.04;100593.59;5096386;28;19948;-76
2022/05/30 08:06:51;;;;;;;;;;;;;;;26.11;27.88;100593.59;5101021;28;20342;-74
2022/05/30 08:09:16;;;;;;;;;;;;;;;26.20;27.71;100592.69;5084760;28;19924;-76
2022/05/30 08:11:41;;;;;;;;;;;;;;;26.16;27.62;100601.78;5096489;28;20382;-75
2022/05/30 08:14:07;;;;;;;;;;;;;;;26.17;27.74;100595.19;5095044;28;20331;-75
2022/05/30 08:16:37;;;;;;;;;;;;;;;26.18;27.78;100594.09;5094731;28;19938;-75
2022/05/30 08:19:02;;;;;;;;;;;;;;;26.22;27.53;100592.41;5094723;28;19962;-74
2022/05/30 08:21:28;;;;;;;;;;;;;;;26.22;27.60;100595.16;5095674;28;20227;-75
2022/05/30 08:23:53;;;;;;;;;;;;;;;26.25;27.43;100600.06;5094341;28;19962;-75
2022/05/30 08:26:18;;;;;;;;;;;;;;;26.19;27.53;100606.69;5094387;28;20276;-74
2022/05/30 08:28:43;;;;;;;;;;;;;;;26.23;27.72;100613.22;5094582;28;20354;-75
2022/05/30 08:31:09;;;;;;;;;;;;;;;26.21;27.44;100608.00;5093973;28;19924;-74
2022/05/30 08:33:34;;;;;;;;;;;;;;;26.19;27.51;100607.50;5094100;28;19916;-74
2022/05/30 08:36:01;;;;;;;;;;;;;;;26.29;27.57;100605.78;5094828;28;19916;-75
2022/05/30 08:38:26;;;;;;;;;;;;;;;26.30;27.44;100600.03;5094128;28;20053;-74
2022/05/30 08:43:37;;;;;;;;;;;;;;;26.29;27.31;100603.84;5094308;28;20057;-75
2022/05/30 08:46:10;;;;;;;;;;;;;;;26.30;27.50;100601.94;5076169;28;19916;-75
2022/05/30 08:49:09;;;;;;;;;;;;;;;26.30;27.56;100600.03;5075926;28;20005;-74
2022/05/30 08:51:42;;;;;;;;;;;;;;;26.21;27.83;100599.00;5031747;28;20350;-74
2022/05/30 08:54:10;;;;;;;;;;;;;;;26.18;27.92;100600.41;5031488;28;19917;-74
2022/05/30 08:56:36;;;;;;;;;;;;;;;26.16;28.17;100599.03;5031469;28;19928;-76
2022/05/30 08:59:02;;;;;;;;;;;;;;;26.26;28.05;100592.66;5015357;28;19924;-72
2022/05/30 09:01:28;;;;;;;;;;;;;;;26.19;27.92;100595.72;5031442;28;19921;-71
2022/05/30 09:04:09;;;;;;;;;;;;;;;26.27;27.87;100599.75;5015401;28;20344;-71
2022/05/30 09:06:44;;;;;;;;;;;;;;;26.31;27.86;100598.91;4996945;28;20375;-71
2022/05/30 09:09:22;;;;;;;;;;;;;;;26.37;27.66;100600.50;5011458;28;19940;-71
2022/05/30 09:11:49;;;;;;;;;;;;;;;26.36;27.75;100601.59;5011612;28;19924;-71
2022/05/30 09:14:37;;;;;;;;;;;;;;;26.33;27.78;100593.13;5011586;28;19957;-71
2022/05/30 09:17:03;;;;;;;;;;;;;;;26.35;27.42;100594.47;5006244;28;20352;-71
2022/05/30 09:19:29;;;;;;;;;;;;;;;26.32;27.43;100595.06;4995359;28;19984;-71
2022/05/30 09:22:01;;;;;;;;;;;;;;;26.38;27.63;100596.63;5011746;28;20388;-71
2022/05/30 09:24:26;;;;;;;;;;;;;;;26.39;27.57;100597.47;5011984;28;19976;-71
2022/05/30 09:26:51;;;;;;;;;;;;;;;26.39;27.33;100601.03;5043828;28;19920;-71
2022/05/30 09:29:21;;;;;;;;;;;;;;;26.40;27.00;100599.91;5094018;28;19982;-72
2022/05/30 09:31:54;;;;;;;;;;;;;;;26.36;27.01;100596.13;5078945;28;19951;-72
2022/05/30 09:34:55;;;;;;;;;;;;;;;26.40;27.08;100597.16;5082453;28;19960;-71
2022/05/30 09:37:25;;;;;;;;;;;;;;;26.38;26.94;100604.84;5037871;28;20016;-70
2022/05/30 09:39:50;;;;;;;;;;;;;;;26.39;27.22;100601.03;5022066;28;19991;-70
2022/05/30 09:42:34;;;;;;;;;;;;;;;26.36;26.88;100606.25;5021287;28;20403;-69
2022/05/30 09:45:07;;;;;;;;;;;;;;;26.26;27.25;100603.63;5037725;28;19963;-70
2022/05/30 09:47:34;;;;;;;;;;;;;;;26.35;27.14;100599.94;5037786;28;20274;-70
2022/05/30 09:49:59;;;;;;;;;;;;;;;26.28;27.25;100601.41;5037545;28;20112;-70
2022/05/30 09:52:24;;;;;;;;;;;;;;;26.36;27.01;100598.84;5020634;28;19921;-70
2022/05/30 09:54:50;;;;;;;;;;;;;;;26.34;26.89;100600.25;5037186;28;19996;-70
2022/05/30 09:57:34;;;;;;;;;;;;;;;26.35;26.94;100605.44;5036975;28;20338;-71
2022/05/30 10:00:06;;;;;;;;;;;;;;;26.35;26.75;100599.94;5037133;28;19952;-69
2022/05/30 10:02:32;;;;;;;;;;;;;;;26.34;26.90;100606.56;5036944;28;20391;-70
2022/05/30 10:05:01;;;;;;;;;;;;;;;26.34;27.01;100603.00;5013653;28;19917;-70
2022/05/30 10:07:27;;;;;;;;;;;;;;;26.33;26.82;100602.16;5017140;28;19925;-70
2022/05/30 10:09:56;;;;;;;;;;;;;;;26.26;26.71;100606.34;5017157;28;20389;-70
2022/05/30 10:12:29;;;;;;;;;;;;;;;26.33;26.75;100606.84;5077321;28;19916;-69
2022/05/30 10:14:54;;;;;;;;;;;;;;;26.27;26.75;100603.34;5106024;28;20003;-71
2022/05/30 10:17:32;;;;;;;;;;;;;;;26.33;27.04;100606.84;5088942;28;20405;-70
2022/05/30 10:19:58;;;;;;;;;;;;;;;26.30;26.88;100608.25;5081744;28;19916;-72
2022/05/30 10:28:33;;;;;;;;;;;;;;;26.21;26.82;100601.72;5084580;28;20378;-71
2022/05/30 10:30:59;;;;;;;;;;;;;;;26.32;26.90;100592.31;5099873;28;19983;-71
2022/05/30 10:33:59;;;;;;;;;;;;;;;26.40;26.65;100597.16;5099761;28;20308;-71
2022/05/30 10:36:30;;;;;;;;;;;;;;;26.38;26.48;100599.38;5099111;28;19916;-71
2022/05/30 10:39:04;;;;;;;;;;;;;;;26.33;26.94;100602.16;5099235;28;20018;-69
2022/05/30 10:41:37;;;;;;;;;;;;;;;26.27;27.02;100595.13;5099000;28;20000;-71
2022/05/30 10:44:08;;;;;;;;;;;;;;;26.32;26.72;100606.03;5097105;28;19951;-71
2022/05/30 10:46:35;;;;;;;;;;;;;;;26.45;26.84;100600.97;5097759;28;20316;-71
2022/05/30 10:49:03;;;;;;;;;;;;;;;26.38;26.67;100604.84;5078480;28;20377;-71
2022/05/30 10:51:30;;;;;;;;;;;;;;;26.36;26.88;100601.59;5096297;28;19920;-70
2022/05/30 10:54:01;;;;;;;;;;;;;;;26.37;26.76;100600.50;5078161;28;20278;-70
2022/05/30 10:56:27;;;;;;;;;;;;;;;26.36;26.77;100607.06;5096856;28;20261;-71
2022/05/30 10:58:58;;;;;;;;;;;;;;;26.41;26.58;100598.81;5077663;28;20020;-71
2022/05/30 11:01:30;;;;;;;;;;;;;;;26.41;26.77;100609.75;5077733;28;20382;-71
2022/05/30 11:04:01;;;;;;;;;;;;;;;26.36;26.69;100601.59;5096476;28;19916;-71
2022/05/30 11:06:28;;;;;;;;;;;;;;;26.35;27.03;100599.94;5077922;28;19944;-71
2022/05/30 11:08:53;;;;;;;;;;;;;;;26.34;26.80;100606.56;5096331;28;20270;-73
2022/05/30 11:11:20;;;;;;;;;;;;;;;26.27;27.21;100597.84;5096161;28;19924;-71
2022/05/30 11:13:47;;;;;;;;;;;;;;;26.34;26.78;100603.81;5095870;28;19917;-72
2022/05/30 11:16:31;;;;;;;;;;;;;;;26.32;27.14;100602.44;5077294;28;20374;-72
2022/05/30 11:19:06;;;;;;;;;;;;;;;26.22;27.31;100606.13;5095651;28;19924;-72
2022/05/30 11:21:33;;;;;;;;;;;;;;;26.14;27.24;100595.78;5077651;28;19916;-73
2022/05/30 11:24:00;;;;;;;;;;;;;;;26.24;27.07;100603.91;5077684;28;19931;-72
2022/05/30 11:26:40;;;;;;;;;;;;;;;26.22;27.11;100601.44;5077705;28;19924;-72
2022/05/30 11:29:20;;;;;;;;;;;;;;;26.17;27.52;100595.19;5096242;28;19955;-71
2022/05/30 11:31:48;;;;;;;;;;;;;;;26.23;27.56;100591.28;5077323;28;20096;-71
2022/05/30 11:34:22;;;;;;;;;;;;;;;26.20;27.70;100597.38;5095877;28;19916;-71
2022/05/30 11:36:59;;;;;;;;;;;;;;;26.07;27.74;100598.03;5077629;28;19917;-71
2022/05/30 11:39:46;;;;;;;;;;;;;;;26.21;27.64;100591.59;5095373;28;19942;-71
2022/05/30 11:42:12;;;;;;;;;;;;;;;26.31;27.42;100592.63;5077233;28;19916;-70
2022/05/30 11:44:40;;;;;;;;;;;;;;;26.30;27.44;100591.81;5094741;28;19962;-69
2022/05/30 11:47:08;;;;;;;;;;;;;;;26.27;27.46;100595.13;5095144;28;19916;-69
2022/05/30 11:49:35;;;;;;;;;;;;;;;26.33;27.37;100601.34;5094700;28;19916;-69
2022/05/30 11:52:12;;;;;;;;;;;;;;;26.35;27.41;100594.47;5076800;28;19916;-70
2022/05/30 11:54:56;;;;;;;;;;;;;;;26.30;27.43;100601.94;5094048;28;19943;-70
2022/05/30 11:57:44;;;;;;;;;;;;;;;26.31;27.57;100593.41;5094528;28;20289;-70
2022/05/30 12:00:24;;;;;;;;;;;;;;;26.34;27.58;100595.59;5086290;28;19939;-69
2022/05/30 12:02:49;;;;;;;;;;;;;;;26.34;27.41;100598.34;5095178;28;20031;-69
2022/05/30 12:05:21;;;;;;;;;;;;;;;26.32;27.56;100595.06;5094821;28;20343;-70
2022/05/30 12:07:46;;;;;;;;;;;;;;;26.31;27.56;100596.16;5095063;28;19924;-69
2022/05/30 12:10:30;;;;;;;;;;;;;;;26.30;27.42;100591.81;5094872;28;20380;-69
2022/05/30 12:12:58;;;;;;;;;;;;;;;26.25;27.36;100594.59;5094909;28;19916;-70
2022/05/30 12:15:40;;;;;;;;;;;;;;;26.28;27.49;100596.72;5094562;28;19943;-70
2022/05/30 12:24:04;;;;;;;;;;;;;;;26.27;27.52;100603.34;5094293;28;20294;-68
2022/05/30 12:26:48;;;;;;;;;;;;;;;26.27;27.46;100602.50;5094415;28;19969;-70
2022/05/30 12:29:32;;;;;;;;;;;;;;;26.28;27.35;100604.13;5094369;28;20331;-72
2022/05/30 12:32:09;;;;;;;;;;;;;;;26.30;27.18;100601.94;5094574;28;19916;-69
2022/05/30 12:34:54;;;;;;;;;;;;;;;26.28;27.03;100604.94;5094535;28;20378;-69
2022/05/30 12:37:41;;;;;;;;;;;;;;;26.30;26.84;100601.94;5094499;28;19916;-70
2022/05/30 12:40:10;;;;;;;;;;;;;;;26.26;26.80;100598.13;5093883;28;19916;-71
2022/05/30 12:42:39;;;;;;;;;;;;;;;26.27;26.93;100603.34;5094267;28;19923;-70
2022/05/30 12:45:22;;;;;;;;;;;;;;;26.29;26.94;100606.59;5094631;28;20286;-71
2022/05/30 12:47:54;;;;;;;;;;;;;;;26.28;26.60;100604.13;5094013;28;19935;-70
2022/05/30 12:50:32;;;;;;;;;;;;;;;26.27;26.73;100608.81;5075927;28;20096;-70
2022/05/30 12:52:58;;;;;;;;;;;;;;;26.24;26.61;100603.91;5093943;28;19916;-70
2022/05/30 12:55:33;;;;;;;;;;;;;;;26.27;26.77;100614.28;5094242;28;19923;-71
2022/05/30 12:57:59;;;;;;;;;;;;;;;26.28;26.84;100607.69;5094644;28;19923;-71
2022/05/30 13:00:44;;;;;;;;;;;;;;;26.26;26.54;100600.88;5094321;28;20298;-71
2022/05/30 13:03:29;;;;;;;;;;;;;;;26.22;27.01;100604.19;5094293;28;19927;-71